NWS Home NWS Lubbock West Texas Mesonet                      Daily Summary For 03/03/2021

Latest   N   C   S   Daily Sum   3hrΔ   24hrΔ   Soil Data 
Site Map   24hr Precip   72hr Precip   Google Plot


Station Time of Last Max Temp Min Temp Max/Min Dew Pt. Max/Min RH 10m Avg Wind 2m Avg Wind Peak Gust @ 33ft (mph) Potential Evapotranspiration
mm/day or in/day
Rain Sum Solar Rad
MJ/m^2
% Clear Day Red Flag
Abernathy 5ENE 11:59 PM 72 58 60 /55 96 / 60 10.9  (SW) 7.4 28.5 mph 238° @ 1234 PM 3.8 or 0.15 0.00 22.5 166.1 0
Adrian 6WSW 11:59 PM 72 58 60 /55 96 / 60 11.8  (SW) 8.5 25.7 mph 220° @ 0204 AM 3.6 or 0.14 0.00 22.9 175.7 0
Aiken 3WSW 11:59 PM 72 58 60 /55 96 / 60 10.4  (SW) 6.4 26.5 mph 251° @ 0324 PM 3.8 or 0.15 0.00 23.3 173.6 0
Amarillo 15NNW 11:59 PM 72 58 60 /55 96 / 60 8.5  (SW) 5.7 24.6 mph 219° @ 0301 AM 2.8 or 0.11 0.00 21.6 168.2 0
Amarillo 7SSE 11:59 PM 72 58 60 /55 96 / 60 8.5  (SW) 5.8 22 mph 242° @ 0851 AM 3 or 0.12 0.00 21.2 162.8 0
Amarillo 9NNE 11:59 PM 72 58 60 /55 96 / 60 9.9  (SW) 7.3 30.8 mph 216° @ 0227 AM 3.3 or 0.13 0.00 21.6 167.4 0
Amherst 1NE 11:55 PM 72 58 60 /55 96 / 60 11.6  (S) 8.5 25 mph 265° @ 0200 PM 3.8 or 0.15 0.00 4.4 164.1 0
Andrews 2E 11:59 PM 72 58 60 /55 96 / 60 9  (S) 5.2 20.8 mph 212° @ 0453 PM 3.3 or 0.13 0.00 22.8 159.3 0
Anton 6SSW 11:55 PM 72 58 60 /55 96 / 60 10.6  (SW) 7.5 23.5 mph 248° @ 0230 PM 3.8 or 0.15 0.00 22.1 161.6 0
Aspermont 3NE 11:55 PM 72 58 60 /55 96 / 60 9.4  (S) 5.6 23.3 mph 219° @ 1135 AM 3.3 or 0.13 0.00 4.3 157.1 0
Big Bend NP - Castolon 11:59 PM 72 58 60 /55 96 / 60 2.4  (NW) 1.6 12 mph 162° @ 1248 PM 1.8 or 0.07 0.00 19.1 122.3 0
Big Bend NP - Persimmon Gap 11:59 PM 72 58 60 /55 96 / 60 7.2  (N) 5.6 24 mph 17° @ 0954 PM 3.3 or 0.13 0.00 20.4 131.6 0
Big Lake 1WNW 11:59 PM 72 58 60 /55 96 / 60 9.7  (SE) 7.1 26.7 mph 178° @ 1006 AM 3.3 or 0.13 0.00 23.1 156.2 0
Bootleg 11WNW 11:59 PM 72 58 60 /55 96 / 60 12.5  (SW) 8.8 29.3 mph 219° @ 0412 AM 3.8 or 0.15 0.00 19.8 149.9 0
Borger 7E 11:59 PM 72 58 60 /55 96 / 60 9.3  (SW) 6.4 23 mph 208° @ 0314 AM 2.8 or 0.11 0.00 23.7 186.8 0
Boys Ranch 1WSW 11:59 PM 72 58 60 /55 96 / 60 3.3  (W) 2.5 17.2 mph 271° @ 0908 AM 1.3 or 0.05 0.00 22.3 174.6 0
Brownfield 2S 11:59 PM 72 58 60 /55 96 / 60 9.5  (SW) 6.1 21.9 mph 248° @ 0307 PM 3.6 or 0.14 0.00 22.1 158.9 0
Canadian 6E 11:59 PM 72 58 60 /55 96 / 60 8.4  (SE) 5.4 23.2 mph 179° @ 0215 PM 2.5 or 0.1 0.00 22.1 176.5 0
Caprock Canyons State Park 11:59 PM 72 58 60 /55 96 / 60 10.1  (SW) 7 26.1 mph 250° @ 0135 PM 3.3 or 0.13 0.00 22.8 172.4 0
Childress 2NNE 11:55 PM 72 58 60 /55 96 / 60 12.7  (S) 7.9 27.6 mph 188° @ 0150 PM 4.1 or 0.16 0.00 21.4 162.9 0
Clarendon 2WSW 11:55 PM 72 58 60 /55 96 / 60 10.4  (SW) 6.4 23.5 mph 216° @ 0350 AM 3.3 or 0.13 0.00 22 169.3 0
Claude 12SW 11:59 PM 72 58 60 /55 96 / 60 8.8  (S) 6.4 25.5 mph 211° @ 0328 AM 3 or 0.12 0.00 23.2 177.5 0
Clyde 2WNW 11:59 PM 72 58 60 /55 96 / 60 10.8  (S) 7.9 24 mph 209° @ 0949 AM 3.3 or 0.13 0.00 22 156.1 0
Colorado City 5NW 11:59 PM 72 58 60 /55 96 / 60 8.5  (S) 5.1 23.6 mph 238° @ 0324 PM 3.3 or 0.13 0.00 21.9 155 0
Comanche Springs 11:59 PM 72 58 60 /55 96 / 60 6.2  (SE) 4 25.2 mph 206° @ 0233 PM 2.5 or 0.1 0.00 23 172.9 0
Coyanosa 2N 11:59 PM 72 58 60 /55 96 / 60 4.7  (SE) 2.5 17.6 mph 134° @ 0959 PM 2.3 or 0.09 0.00 20.4 138.6 0
Crane 1NNW 11:59 PM 72 58 60 /55 96 / 60 7.9  (E) 5.1 21.2 mph 183° @ 1051 PM 3.3 or 0.13 0.00 22.9 156.7 0
Crowell 1E 11:59 PM 72 58 60 /55 96 / 60 9.2  (SW) 6.2 25.9 mph 171° @ 0322 PM 3 or 0.12 0.00 21.9 164.6 0
Dell City 11:59 PM 72 58 60 /55 96 / 60 4.6  (NW) 2.9 11.5 mph 143° @ 0514 PM 2.3 or 0.09 0.00 20.6 142.1 0
Denver City 7WNW 11:55 PM 72 58 60 /55 96 / 60 8.6  (SW) 5.1 18.6 mph 220° @ 0350 PM 3 or 0.12 0.00 23.6 168.5 0
Dimmitt 2NE 11:55 PM 72 58 60 /55 96 / 60 12  (SW) 9.6 25.9 mph 216° @ 0145 AM 3.8 or 0.15 0.00 21.8 164.1 0
Doole 3WNW 11:59 PM 72 58 60 /55 96 / 60 7.5  (S) 5.1 20.5 mph 203° @ 0302 PM 3 or 0.12 0.00 22.8 157.1 0
Dora NM 2SW 11:55 PM 72 58 60 /55 96 / 60 13.4  (S) 9.5 23.6 mph 292° @ 1045 AM 4.1 or 0.16 0.00 20.8 152.6 0
Dozier 3W 11:59 PM 72 58 60 /55 96 / 60 7.1  (SE) 4.2 25.4 mph 150° @ 0244 PM 2.5 or 0.1 0.00 21.8 169.4 0
Earth 9WSW 11:59 PM 72 58 60 /55 96 / 60 11.1  (SW) 8.9 25.4 mph 260° @ 0956 AM 3.8 or 0.15 0.00 22.2 165 0
Endee NM 2SW 11:59 PM 72 58 60 /55 96 / 60 9.3  (SW) 6.5 28.7 mph 210° @ 0226 AM 2.8 or 0.11 0.00 21.3 163.4 0
Estelline 3SSE 11:59 PM 72 58 60 /55 96 / 60 9.1  (S) 5.8 24.3 mph 217° @ 0237 PM 3.3 or 0.13 0.00 22 167.8 0
Floydada 2NNE 11:55 PM 72 58 60 /55 96 / 60 12  (SW) 8.5 27.6 mph 229° @ 0150 PM 4.1 or 0.16 0.00 22.2 164.4 0
Fluvanna 3WNW 11:55 PM 72 58 60 /55 96 / 60 10.1  (SW) 7.1 25.9 mph 211° @ 1135 AM 3.6 or 0.14 0.00 20.7 148.6 0
Fort Chadbourne 11:59 PM 72 58 60 /55 96 / 60 5.1  (SW) 3.3 19.3 mph 206° @ 1114 AM 2.3 or 0.09 0.00 21.3 148.8 0
Fort Lancaster 11:59 PM 72 58 60 /55 96 / 60 6  (N) 4.2 19.5 mph 190° @ 0220 PM 2.5 or 0.1 0.00 21.1 141.5 0
Fort Lewis CO 11:59 PM 72 58 60 /55 96 / 60 9.1  (NE) 4.9 25.8 mph 132° @ 1131 PM 1.8 or 0.07 0.00 22.2 179.4 0
Fort McKavett 11:59 PM 72 58 60 /55 96 / 60 6.6  (SE) 3.3 21.4 mph 213° @ 1116 AM 2.5 or 0.1 0.00 22 148.2 0
Friona 2NE 11:55 PM 72 58 60 /55 96 / 60 10.9  (SW) 7.8 24.9 mph 228° @ 0530 AM 3.6 or 0.14 0.00 22.8 171.9 0
Fritch 1WNW 11:59 PM 72 58 60 /55 96 / 60 9.8  (SW) 7.8 25.7 mph 212° @ 0231 AM 2.8 or 0.11 0.00 22 172.7 0
Gail 2ESE 11:59 PM 72 58 60 /55 96 / 60 8.2  (SW) 4.2 23 mph 227° @ 0243 PM 3.3 or 0.13 0.00 22.7 161.9 0
Goodlett 3W 11:55 PM 72 58 60 /55 96 / 60 11.7  (SW) 7.4 31.6 mph 190° @ 0300 PM 3.6 or 0.14 0.00 22.7 172.6 0
Goodnight 11:59 PM 72 58 60 /55 96 / 60 8.4  (SW) 5.5 25.1 mph 213° @ 0149 AM 2.8 or 0.11 0.00 21.1 162.2 0
Graham 5SSW 11:59 PM 72 58 60 /55 96 / 60 9.6  (SW) 7.1 24.1 mph 223° @ 1229 PM 3.3 or 0.13 0.00 23.2 166.6 0
Guadalupe Mtns Natl Park 11:59 PM 72 58 60 /55 96 / 60 14.3  (W) 9.8 37.3 mph 282° @ 0413 AM 4.1 or 0.16 0.00 22 148.9 9
Guthrie 10WSW 11:59 PM 72 58 60 /55 96 / 60 9.9  (S) 6.2 29.6 mph 225° @ 1040 AM 3.6 or 0.14 0.00 22.8 168.2 0
Hackberry 2SSE 11:59 PM 72 58 60 /55 96 / 60 12  (S) 8.6 26.4 mph 197° @ 0238 PM 3.8 or 0.15 0.00 23.6 175.9 0
Happy 1E 11:59 PM 72 58 60 /55 96 / 60 9.5  (SW) 7.4 22.5 mph 254° @ 0942 AM 3.3 or 0.13 0.00 23.2 175.9 0
Hart 3N 11:55 PM 72 58 60 /55 96 / 60 8.7  (SW) 5.7 23.9 mph 247° @ 0955 AM 3 or 0.12 0.00 22.6 169 0
Haskell 1NW 11:55 PM 72 58 60 /55 96 / 60 9.3  (S) 7.1 21.9 mph 214° @ 1255 PM 3 or 0.12 0.00 21 153.1 0
Hefner 1SW 11:59 PM 72 58 60 /55 96 / 60 12.2  (S) 7.9 25.5 mph 210° @ 1101 AM 3.6 or 0.14 0.00 21.7 160.2 0
Hereford 2NW 11:55 PM 72 58 60 /55 96 / 60 9.2  (SW) 6.9 22.9 mph 220° @ 0445 AM 3 or 0.12 0.00 21.8 165.7 0
Hobbs NM 5NW 11:59 PM 72 58 60 /55 96 / 60 5.8  (S) 3.7 16.4 mph 272° @ 0401 PM 2.3 or 0.09 0.00 23.3 164.6 0
Jayton 1SSE 11:55 PM 72 58 60 /55 96 / 60 8.5  (S) 5.5 24.2 mph 210° @ 1020 AM 3 or 0.12 0.00 21.6 156.9 0
Junction 1SSW 11:59 PM 72 58 60 /55 96 / 60 4.5  (N) 3.3 17.4 mph 221° @ 1053 AM 2.3 or 0.09 0.00 19.1 127.3 0
Kent 9E 11:59 PM 72 58 60 /55 96 / 60 6.9  (W) 4.8 28.4 mph 250° @ 0234 PM 3 or 0.12 0.00 21.2 141.6 0
Knox City 3NW 11:59 PM 72 58 60 /55 96 / 60 10.1  (S) 6.4 26.3 mph 213° @ 0428 PM 3.3 or 0.13 0.00 22.8 167.6 0
Lake Alan Henry 1NW 11:59 PM 72 58 60 /55 96 / 60 7  (W) 4.1 22.7 mph 228° @ 1102 AM 2.8 or 0.11 0.00 21.7 157.1 0
Lake McClellan 2NW 11:59 PM 72 58 60 /55 96 / 60 10.5  (SW) 7.6 22.4 mph 227° @ 0609 AM 3 or 0.12 0.00 21.7 168 0
Lamesa 2SE 11:55 PM 72 58 60 /55 96 / 60 7.2  (S) 4.1 21.1 mph 253° @ 0235 PM 2.8 or 0.11 0.00 22.8 162.1 0
Lesley 2S 11:59 PM 72 58 60 /55 96 / 60 7  (W) 4.8 22.8 mph 204° @ 0157 PM 2.8 or 0.11 0.00 23.1 176.3 0
Levelland 4S 11:59 PM 72 58 60 /55 96 / 60 10.3  (SW) 7.4 25.2 mph 259° @ 0251 PM 3.6 or 0.14 0.00 22.3 162.3 0
Lomax 1SSE 11:59 PM 72 58 60 /55 96 / 60 8.2  (S) 5.2 24.8 mph 189° @ 0950 AM 3.3 or 0.13 0.00 22.9 159.7 0
Lubbock 3WNW TTU 11:55 PM 72 58 60 /55 96 / 60 8.3  (S) 3.9 21.6 mph 240° @ 0330 PM 3 or 0.12 0.00 22.5 164.3 0
McAdoo 3NNW 11:59 PM 72 58 60 /55 96 / 60 13.4  (SW) 8.7 27.4 mph 215° @ 0315 PM 4.1 or 0.16 0.00 22.8 167.6 0
McCamey 1SSW 11:59 PM 72 58 60 /55 96 / 60 5.9  (E) 4.5 20.5 mph 148° @ 0449 PM 2.8 or 0.11 0.00 20.1 135.9 0
McLean 1E 11:55 PM 72 58 60 /55 96 / 60 10.5  (SW) 7.7 29.1 mph 183° @ 0105 PM 3 or 0.12 0.00 23.1 179.6 0
Memphis 1NE 11:59 PM 72 58 60 /55 96 / 60 5.6  (NE) 3.3 25.2 mph 189° @ 1157 AM 2.3 or 0.09 0.00 22.4 171.6 0
Menard 2NW 11:59 PM 72 58 60 /55 96 / 60 4.9  (NW) 4 21.5 mph 195° @ 1106 AM 2.3 or 0.09 0.00 20.3 137.2 0
Mertzon 3NNE 11:59 PM 72 58 60 /55 96 / 60 7.8  (SW) 4.7 28.3 mph 195° @ 1023 AM 3 or 0.12 0.00 21.6 147.7 0
Morton 1ENE 11:55 PM 72 58 60 /55 96 / 60 10.4  (SW) 7 23 mph 258° @ 0200 PM 3.6 or 0.14 0.00 22 160.6 0
Muleshoe 2SSW 11:55 PM 72 58 60 /55 96 / 60 9.8  (SW) 6.4 25.8 mph 273° @ 1040 AM 3.3 or 0.13 0.00 23.9 177.8 0
New Home 11:59 PM 72 58 60 /55 96 / 60 9.6  (SW) 1.3 23.4 mph 233° @ 0422 PM 3.6 or 0.14 0.00 21.7 156.6 0
Northfield 1S 11:55 PM 72 58 60 /55 96 / 60 10.8  (S) 6.8 38.4 mph 194° @ 0135 PM 4.1 or 0.16 0.00 21.3 160.5 0
O'Donnell 1N 11:55 PM 72 58 60 /55 96 / 60 8.1  (S) 4.2 21.9 mph 222° @ 0335 PM 3 or 0.12 0.00 4 141.4 0
Odell 4ENE 11:59 PM 72 58 60 /55 96 / 60 11.3  (S) 8 28.2 mph 158° @ 0242 PM 3 or 0.12 0.00 21.3 161.9 0
Olton 6S 11:55 PM 72 58 60 /55 96 / 60 11.2  (S) 7.5 26.5 mph 263° @ 0340 PM 3.8 or 0.15 0.00 22 163 0
Paducah 10SW 11:55 PM 72 58 60 /55 96 / 60 12.6  (SW) 6.6 27.7 mph 217° @ 0205 PM 4.1 or 0.16 0.00 3.1 116.6 0
Palo Duro 4E (JA Ranch) 11:59 PM 72 58 60 /55 96 / 60 6.9  (SW) 4.4 19.2 mph 206° @ 1234 PM 2.5 or 0.1 0.00 21.9 168.1 0
Palo Duro Canyon SP Floor 11:59 PM 72 58 60 /55 96 / 60 4.9  (SW) 2.4 30.6 mph 259° @ 0344 AM 1.8 or 0.07 0.00 20.8 159.6 0
Palo Duro Canyon State Park Rim 11:59 PM 72 58 60 /55 96 / 60 7.5  (SW) 4.3 30.7 mph 229° @ 0214 AM 2.5 or 0.1 0.00 22.8 174.5 0
Palo Duro Reservoir 1NW 11:59 PM 72 58 60 /55 96 / 60 6.5  (SW) 4.2 19.4 mph 223° @ 0129 AM 2 or 0.08 0.00 21 169.5 0
Pampa 2E 11:55 PM 72 58 60 /55 96 / 60 8.9  (SW) 5.8 20 mph 220° @ 0300 PM 2.5 or 0.1 0.00 20.7 161.7 0
Panhandle 1SSW 11:59 PM 72 58 60 /55 96 / 60 10  (SW) 6.8 22.1 mph 212° @ 0315 AM 3 or 0.12 0.00 22.2 172 0
Plains 3N 11:55 PM 72 58 60 /55 96 / 60 9.3  (SW) 6.3 23.3 mph 262° @ 0220 PM 3.3 or 0.13 0.00 23.2 166.3 0
Plainview 1S 11:59 PM 72 58 60 /55 96 / 60 8.1  (SW) 5.9 24.1 mph 233° @ 0856 AM 3 or 0.12 0.00 23.2 172.6 0
Post 1NE 11:59 PM 72 58 60 /55 96 / 60 8.3  (SW) 5.1 26.3 mph 212° @ 0955 AM 3 or 0.12 0.00 22.3 161.2 0
Ralls 1SE 11:59 PM 72 58 60 /55 96 / 60 10.6  (SW) 6.5 25.2 mph 216° @ 1133 AM 3.6 or 0.14 0.00 22.3 163.3 0
Reese Center 11:59 PM 72 58 60 /55 96 / 60 10.3  (SW) 6.7 27.4 mph 274° @ 0307 PM 3.8 or 0.15 0.00 22.4 163.6 0
Roaring Springs 3N 11:59 PM 72 58 60 /55 96 / 60 12.2  (SW) 8.3 27.4 mph 202° @ 0113 PM 3.8 or 0.15 0.00 22.9 169.7 1
Romero 11SSW 11:59 PM 72 58 60 /55 96 / 60 5.7  (SW) 3.6 14.5 mph 213° @ 0557 PM 1.8 or 0.07 0.00 20.8 162.3 0
Rotan 5W 11:59 PM 72 58 60 /55 96 / 60 11.5  (S) 6.9 27.2 mph 199° @ 0953 AM 4.1 or 0.16 0.00 26.9 192.9 0
San Angelo 7NW 11:55 PM 72 58 60 /55 96 / 60 5.2  (E) 3.3 22.1 mph 203° @ 1045 AM 2.3 or 0.09 0.00 21.7 149.2 0
Seagraves 1SW 11:59 PM 72 58 60 /55 96 / 60 7.6  (SW) 3.7 21.9 mph 224° @ 0234 PM 3 or 0.12 0.00 23.4 166.6 0
Segovia 7SSW 11:59 PM 72 58 60 /55 96 / 60 7.7  (S) 4.4 20.1 mph 176° @ 1058 AM 2.8 or 0.11 0.00 21.7 143.6 0
Seminole 2NNE 11:55 PM 72 58 60 /55 96 / 60 8.4  (S) 5.2 20.8 mph 200° @ 1140 PM 3 or 0.12 0.00 4.5 161 0
Seymour 3NW 11:55 PM 72 58 60 /55 96 / 60 9.4  (S) 6.2 28.1 mph 184° @ 0150 PM 3 or 0.12 0.00 18.9 140 0
Sierra Blanca 1SSE 11:59 PM 72 58 60 /55 96 / 60 5  (SW) 3.8 18.1 mph 207° @ 0340 PM 2.3 or 0.09 0.00 20.5 136.4 0
Silverton 7ESE 11:55 PM 72 58 60 /55 96 / 60 14.1  (SW) 10.1 27.2 mph 228° @ 1045 AM 4.3 or 0.17 0.00 19.9 150 0
Slaton 2NE 11:59 PM 72 58 60 /55 96 / 60 12.1  (SW) 8.4 23 mph 215° @ 0959 AM 3.8 or 0.15 0.00 23.2 169.2 0
Smyer 11:59 PM 72 58 60 /55 96 / 60 9.2  (SW) 6.9 21.3 mph 255° @ 0328 PM 3.3 or 0.13 0.00 23.2 169 0
Snyder 3E 11:55 PM 72 58 60 /55 96 / 60 9.6  (S) 4.2 22.8 mph 202° @ 0135 PM 3.6 or 0.14 0.00 19.8 141.6 0
Snyder 3SSW 11:59 PM 72 58 60 /55 96 / 60 10.3  (S) 6.8 25 mph 231° @ 0223 PM 3.6 or 0.14 0.00 22.1 157.6 0
South Plains 3ENE 11:59 PM 72 58 60 /55 96 / 60 11.3  (SW) 7.9 31 mph 251° @ 0255 PM 3.8 or 0.15 0.00 22.1 165.3 0
Spur 1W 11:55 PM 72 58 60 /55 96 / 60 7.1  (W) 4.3 24.4 mph 230° @ 1020 AM 2.8 or 0.11 0.00 22.3 163.6 0
St. Lawrence 5SW 11:59 PM 72 58 60 /55 96 / 60 9.6  (SE) 6 25.2 mph 187° @ 0942 AM 3.6 or 0.14 0.00 24.1 165.5 0
Stamford 5ESE 11:59 PM 72 58 60 /55 96 / 60 9.6  (S) 6.5 23.3 mph 221° @ 1050 AM 3.3 or 0.13 0.00 22.2 160.5 0
Sterling City 4WSW 11:59 PM 72 58 60 /55 96 / 60 6.8  (SE) 4.8 23.4 mph 189° @ 1007 AM 3 or 0.12 0.00 18.2 125.9 0
Stinnett 1NNW 11:59 PM 72 58 60 /55 96 / 60 8.9  (SW) 5.3 22.5 mph 235° @ 0108 AM 2.5 or 0.1 0.00 21.9 173.3 0
Stratford 4WNW 11:59 PM 72 58 60 /55 96 / 60 10.2  (W) 6.7 20.8 mph 11° @ 0329 PM 3 or 0.12 0.00 21.4 172.4 0
Sundown 8WSW 11:55 PM 72 58 60 /55 96 / 60 11  (SW) 6.5 24.8 mph 255° @ 0300 PM 4.1 or 0.16 0.00 19.5 141.2 0
Sweetwater 11SW 11:59 PM 72 58 60 /55 96 / 60 10.6  (S) 7.4 24.5 mph 179° @ 0925 AM 3.6 or 0.14 0.00 23.8 167.5 0
Tahoka 3NNE 11:59 PM 72 58 60 /55 96 / 60 9.4  (S) 5.2 25 mph 222° @ 0354 PM 3.6 or 0.14 0.00 22.3 160.5 0
Tarzan 2WNW 11:59 PM 72 58 60 /55 96 / 60 8.5  (S) 5.1 21.9 mph 216° @ 0107 PM 3.3 or 0.13 0.00 22.4 156.9 0
Tatum NM 2SW 11:55 PM 72 58 60 /55 96 / 60 8.5  (SW) 4.6 24.3 mph 262° @ 0310 PM 3 or 0.12 0.00 23.2 166.2 0
Throckmorton 1SW 11:59 PM 72 58 60 /55 96 / 60 7.9  (S) 3.7 21.8 mph 185° @ 0155 PM 2.8 or 0.11 0.00 22.5 164.5 0
Truscott 2SE 11:59 PM 72 58 60 /55 96 / 60 11  (S) 7.1 25.1 mph 202° @ 1043 AM 3.6 or 0.14 0.00 21.5 160.2 0
Tulia 2ENE 11:55 PM 72 58 60 /55 96 / 60 11.3  (SW) 8.6 26.8 mph 228° @ 0850 AM 3.8 or 0.15 0.00 19.4 146.1 0
Turkey 2WSW 11:55 PM 72 58 60 /55 96 / 60 11  (S) 7.6 24.4 mph 200° @ 0130 PM 4.1 or 0.16 0.00 19.3 145.8 0
Umbarger 3NNE 11:59 PM 72 58 60 /55 96 / 60 9.6  (SW) 6.7 23.9 mph 222° @ 0556 AM 3.3 or 0.13 0.00 21.6 164.9 0
Van Horn 3ENE 11:59 PM 72 58 60 /55 96 / 60 6.3  (SW) 3.8 17 mph 214° @ 0114 PM 2.8 or 0.11 0.00 22.7 151.7 0
Vega 4E 11:59 PM 72 58 60 /55 96 / 60 9.6  (S) 6.7 23 mph 302° @ 0956 AM 3.3 or 0.13 0.00 23.4 180.1 0
Vigo Park 11:59 PM 72 58 60 /55 96 / 60 10.3  (SW) 7.1 24 mph 229° @ 0902 AM 3.8 or 0.15 0.00 20.4 154.4 0
Wall 2E 11:59 PM 72 58 60 /55 96 / 60 9.2  (S) 6.2 25.9 mph 220° @ 1103 AM 3.3 or 0.13 0.00 22.5 154.3 0
Weinert 2NNE 11:59 PM 72 58 60 /55 96 / 60 10.9  (S) 7.6 25.4 mph 207° @ 1017 AM 3.6 or 0.14 0.00 20.1 147.8 0
Welch 11:59 PM 72 58 60 /55 96 / 60 7.5  (S) 4.6 23.1 mph 236° @ 0301 PM 3 or 0.12 0.00 23.1 164.8 0
Wellington 6SE 11:59 PM 72 58 60 /55 96 / 60 10.6  (S) 6.7 29.6 mph 184° @ 0156 PM 3.3 or 0.13 0.00 23.6 181.7 0
White River Lake 6NW 11:59 PM 72 58 60 /55 96 / 60 8.8  (SW) 5.5 25.2 mph 204° @ 1243 PM 3 or 0.12 0.00 23.5 171.6 0
Wolfforth 6SSW 11:59 PM 72 58 60 /55 96 / 60 9.5  (SW) 5.9 25.2 mph 260° @ 0319 PM 3.8 or 0.15 0.00 22.9 165.8 0

WestTexas Mesonet Home    Site Map/Menu  National Weather Service Lubbock   Soil Data   Latest Observation Page   Previous  Date   Next Last